Forside
METAR-TAF:

METAR-TAF

Lufthavne :

Kullu / Manali, Indien

Breddekreds: 31-52-36N, længdekreds: 77-09-16E, højde: 1089 m

Aktuelle vejr

Denne rapport blev lavet for 16 timer og 12 minutter siden, kl. 06:00 UTC
Vind 2 kt fra sydøst
Temperatur 11°C
Fugtighed 50%
Tryk 1019 hPa
Sigt: 5000 m
Nogle få skyer i en højde af 3500 ft
Brudte skyer i en højde af 8000 ft
tåge/dis

METAR: VIBR 100600Z 14002KT 5000 HZ FEW035 BKN080 11/01 Q1019

Tid: 03:42 (22:12 UTC)


TAF: fraværende

Vejrobservationer og prognoser fra mere end 4000 lufthavne (METAR og TAF).

De gule og røde prikker repræsenterer de meteorologiske stationer.

Flyt musen over at se navnet på stationen.

Så klik over at se vejr observationer og prognoser.

At skifte det kort: Klik på de grønne knapper med et sort kors for at zoome ind; på den grønne knap med en bindestreg for at zoome ud; eller på de grønne pile for tilstødende kort.


METAR-TAF: